sensor_id;sensor_type;location;lat;lon;timestamp;P1;P2;P0
66149;PMS5003;52952;50.904;20.648;2024-03-07T00:10:15;48;41;23
66149;PMS5003;52952;50.904;20.648;2024-03-07T00:20:24;48;41;23
66149;PMS5003;52952;50.904;20.648;2024-03-07T00:30:06;48;41;23
66149;PMS5003;52952;50.904;20.648;2024-03-07T00:40:14;47;40;22
66149;PMS5003;52952;50.904;20.648;2024-03-07T00:50:05;47;40;22
66149;PMS5003;52952;50.904;20.648;2024-03-07T01:00:24;47;40;22
66149;PMS5003;52952;50.904;20.648;2024-03-07T01:10:16;46;37;22
66149;PMS5003;52952;50.904;20.648;2024-03-07T01:20:01;46;37;22
66149;PMS5003;52952;50.904;20.648;2024-03-07T01:30:13;46;37;22
66149;PMS5003;52952;50.904;20.648;2024-03-07T01:40:14;40;34;20
66149;PMS5003;52952;50.904;20.648;2024-03-07T01:50:15;40;34;20
66149;PMS5003;52952;50.904;20.648;2024-03-07T02:00:10;40;34;20
66149;PMS5003;52952;50.904;20.648;2024-03-07T02:10:18;50;41;23
66149;PMS5003;52952;50.904;20.648;2024-03-07T02:20:13;50;41;23
66149;PMS5003;52952;50.904;20.648;2024-03-07T02:30:08;50;41;23
66149;PMS5003;52952;50.904;20.648;2024-03-07T02:40:13;47;39;23
66149;PMS5003;52952;50.904;20.648;2024-03-07T02:50:04;47;39;23
66149;PMS5003;52952;50.904;20.648;2024-03-07T03:00:14;47;39;23
66149;PMS5003;52952;50.904;20.648;2024-03-07T03:10:18;47;38;23
66149;PMS5003;52952;50.904;20.648;2024-03-07T03:20:35;47;38;23
66149;PMS5003;52952;50.904;20.648;2024-03-07T03:30:05;47;38;23
66149;PMS5003;52952;50.904;20.648;2024-03-07T03:40:16;52;41;24
66149;PMS5003;52952;50.904;20.648;2024-03-07T03:50:14;52;41;24
66149;PMS5003;52952;50.904;20.648;2024-03-07T04:00:19;52;41;24
66149;PMS5003;52952;50.904;20.648;2024-03-07T04:10:19;48;40;24
66149;PMS5003;52952;50.904;20.648;2024-03-07T04:20:02;48;40;24
66149;PMS5003;52952;50.904;20.648;2024-03-07T04:30:17;48;40;24
66149;PMS5003;52952;50.904;20.648;2024-03-07T04:40:15;52;44;24
66149;PMS5003;52952;50.904;20.648;2024-03-07T04:50:18;52;44;24
66149;PMS5003;52952;50.904;20.648;2024-03-07T05:00:24;52;44;24
66149;PMS5003;52952;50.904;20.648;2024-03-07T05:10:12;50;40;24
66149;PMS5003;52952;50.904;20.648;2024-03-07T05:20:20;50;40;24
66149;PMS5003;52952;50.904;20.648;2024-03-07T05:30:21;50;40;24
66149;PMS5003;52952;50.904;20.648;2024-03-07T05:40:02;51;42;25
66149;PMS5003;52952;50.904;20.648;2024-03-07T05:50:17;51;42;25
66149;PMS5003;52952;50.904;20.648;2024-03-07T06:00:30;51;42;25
66149;PMS5003;52952;50.904;20.648;2024-03-07T06:10:17;48;41;21
66149;PMS5003;52952;50.904;20.648;2024-03-07T06:20:23;48;41;21
66149;PMS5003;52952;50.904;20.648;2024-03-07T06:30:12;48;41;21
66149;PMS5003;52952;50.904;20.648;2024-03-07T06:40:15;46;37;23
66149;PMS5003;52952;50.904;20.648;2024-03-07T06:50:18;46;37;23
66149;PMS5003;52952;50.904;20.648;2024-03-07T07:00:21;46;37;23
66149;PMS5003;52952;50.904;20.648;2024-03-07T07:10:24;60;50;32
66149;PMS5003;52952;50.904;20.648;2024-03-07T07:20:21;60;50;32
66149;PMS5003;52952;50.904;20.648;2024-03-07T07:30:04;60;50;32
66149;PMS5003;52952;50.904;20.648;2024-03-07T07:50:14;52;41;24
66149;PMS5003;52952;50.904;20.648;2024-03-07T08:00:31;52;41;24
66149;PMS5003;52952;50.904;20.648;2024-03-07T08:10:10;45;36;23
66149;PMS5003;52952;50.904;20.648;2024-03-07T08:20:19;45;36;23
66149;PMS5003;52952;50.904;20.648;2024-03-07T08:30:13;45;36;23
66149;PMS5003;52952;50.904;20.648;2024-03-07T08:40:07;42;36;22
66149;PMS5003;52952;50.904;20.648;2024-03-07T08:50:09;42;36;22
66149;PMS5003;52952;50.904;20.648;2024-03-07T09:00:33;42;36;22
66149;PMS5003;52952;50.904;20.648;2024-03-07T09:20:20;45;37;22
66149;PMS5003;52952;50.904;20.648;2024-03-07T09:30:28;45;37;22
66149;PMS5003;52952;50.904;20.648;2024-03-07T09:40:10;48;39;23
66149;PMS5003;52952;50.904;20.648;2024-03-07T09:50:01;48;39;23
66149;PMS5003;52952;50.904;20.648;2024-03-07T10:00:27;48;39;23
66149;PMS5003;52952;50.904;20.648;2024-03-07T10:10:16;38;33;20
66149;PMS5003;52952;50.904;20.648;2024-03-07T10:20:27;38;33;20
66149;PMS5003;52952;50.904;20.648;2024-03-07T10:30:26;38;33;20
66149;PMS5003;52952;50.904;20.648;2024-03-07T10:40:18;44;37;22
66149;PMS5003;52952;50.904;20.648;2024-03-07T10:50:26;44;37;22
66149;PMS5003;52952;50.904;20.648;2024-03-07T11:01:00;44;37;22
66149;PMS5003;52952;50.904;20.648;2024-03-07T11:10:14;44;36;21
66149;PMS5003;52952;50.904;20.648;2024-03-07T11:20:39;44;36;21
66149;PMS5003;52952;50.904;20.648;2024-03-07T11:30:18;44;36;21
66149;PMS5003;52952;50.904;20.648;2024-03-07T11:50:13;34;30;19
66149;PMS5003;52952;50.904;20.648;2024-03-07T12:00:33;34;30;19
66149;PMS5003;52952;50.904;20.648;2024-03-07T12:10:15;35;32;20
66149;PMS5003;52952;50.904;20.648;2024-03-07T12:20:36;35;32;20
66149;PMS5003;52952;50.904;20.648;2024-03-07T12:30:27;35;32;20
66149;PMS5003;52952;50.904;20.648;2024-03-07T12:40:23;32;30;20
66149;PMS5003;52952;50.904;20.648;2024-03-07T12:50:21;32;30;20
66149;PMS5003;52952;50.904;20.648;2024-03-07T13:00:30;32;30;20
66149;PMS5003;52952;50.904;20.648;2024-03-07T13:10:08;31;30;19
66149;PMS5003;52952;50.904;20.648;2024-03-07T13:20:15;31;30;19
66149;PMS5003;52952;50.904;20.648;2024-03-07T13:30:10;31;30;19
66149;PMS5003;52952;50.904;20.648;2024-03-07T13:40:02;36;32;20
66149;PMS5003;52952;50.904;20.648;2024-03-07T13:50:14;36;32;20
66149;PMS5003;52952;50.904;20.648;2024-03-07T14:00:26;36;32;20
66149;PMS5003;52952;50.904;20.648;2024-03-07T14:40:27;36;32;19
66149;PMS5003;52952;50.904;20.648;2024-03-07T14:50:16;36;32;19
66149;PMS5003;52952;50.904;20.648;2024-03-07T15:00:44;36;32;19
66149;PMS5003;52952;50.904;20.648;2024-03-07T15:10:28;32;31;20
66149;PMS5003;52952;50.904;20.648;2024-03-07T15:20:23;32;31;20
66149;PMS5003;52952;50.904;20.648;2024-03-07T15:30:21;32;31;20
66149;PMS5003;52952;50.904;20.648;2024-03-07T15:40:17;34;30;19
66149;PMS5003;52952;50.904;20.648;2024-03-07T15:50:02;34;30;19
66149;PMS5003;52952;50.904;20.648;2024-03-07T16:00:26;34;30;19
66149;PMS5003;52952;50.904;20.648;2024-03-07T16:10:13;41;35;20
66149;PMS5003;52952;50.904;20.648;2024-03-07T16:20:03;41;35;20
66149;PMS5003;52952;50.904;20.648;2024-03-07T16:30:22;41;35;20
66149;PMS5003;52952;50.904;20.648;2024-03-07T16:40:02;36;31;20
66149;PMS5003;52952;50.904;20.648;2024-03-07T16:50:17;36;31;20
66149;PMS5003;52952;50.904;20.648;2024-03-07T17:00:29;36;31;20
66149;PMS5003;52952;50.904;20.648;2024-03-07T17:20:12;46;37;24
66149;PMS5003;52952;50.904;20.648;2024-03-07T17:30:18;46;37;24
66149;PMS5003;52952;50.904;20.648;2024-03-07T17:50:05;35;33;22
66149;PMS5003;52952;50.904;20.648;2024-03-07T18:00:29;35;33;22
66149;PMS5003;52952;50.904;20.648;2024-03-07T18:20:11;36;34;21
66149;PMS5003;52952;50.904;20.648;2024-03-07T18:30:20;36;34;21
66149;PMS5003;52952;50.904;20.648;2024-03-07T18:50:12;39;35;21
66149;PMS5003;52952;50.904;20.648;2024-03-07T19:00:37;39;35;21
66149;PMS5003;52952;50.904;20.648;2024-03-07T19:20:19;42;36;22
66149;PMS5003;52952;50.904;20.648;2024-03-07T19:30:08;42;36;22
66149;PMS5003;52952;50.904;20.648;2024-03-07T19:50:07;46;37;22
66149;PMS5003;52952;50.904;20.648;2024-03-07T20:00:25;46;37;22
66149;PMS5003;52952;50.904;20.648;2024-03-07T20:10:18;46;37;22
66149;PMS5003;52952;50.904;20.648;2024-03-07T20:20:26;64;50;30
66149;PMS5003;52952;50.904;20.648;2024-03-07T20:30:12;64;50;30
66149;PMS5003;52952;50.904;20.648;2024-03-07T20:40:14;64;50;30
66149;PMS5003;52952;50.904;20.648;2024-03-07T20:50:29;52;43;26
66149;PMS5003;52952;50.904;20.648;2024-03-07T21:00:25;52;43;26
66149;PMS5003;52952;50.904;20.648;2024-03-07T21:10:02;52;43;26
66149;PMS5003;52952;50.904;20.648;2024-03-07T21:20:19;54;43;27
66149;PMS5003;52952;50.904;20.648;2024-03-07T21:30:03;54;43;27
66149;PMS5003;52952;50.904;20.648;2024-03-07T21:40:23;54;43;27
66149;PMS5003;52952;50.904;20.648;2024-03-07T21:50:14;47;38;24
66149;PMS5003;52952;50.904;20.648;2024-03-07T22:00:05;47;38;24
66149;PMS5003;52952;50.904;20.648;2024-03-07T22:10:17;47;38;24
66149;PMS5003;52952;50.904;20.648;2024-03-07T22:20:08;64;50;31
66149;PMS5003;52952;50.904;20.648;2024-03-07T22:30:22;64;50;31
66149;PMS5003;52952;50.904;20.648;2024-03-07T22:40:23;64;50;31
66149;PMS5003;52952;50.904;20.648;2024-03-07T22:50:22;56;47;26
66149;PMS5003;52952;50.904;20.648;2024-03-07T23:00:19;56;47;26
66149;PMS5003;52952;50.904;20.648;2024-03-07T23:10:19;54;43;24
66149;PMS5003;52952;50.904;20.648;2024-03-07T23:20:23;54;43;24
66149;PMS5003;52952;50.904;20.648;2024-03-07T23:30:10;54;43;24
66149;PMS5003;52952;50.904;20.648;2024-03-07T23:40:02;49;41;26
66149;PMS5003;52952;50.904;20.648;2024-03-07T23:50:15;49;41;26
